Meteorología y climatología de Navarra
Datos de la estación - Meteo Navarra

Estación de Estella GN

Altitud 486 m.


Datos desde el 15/02/2020 hasta el 16/02/2020 en horario solar
Los datos son PROVISIONALES

Anterior Página 1 de 1 Siguiente Descargar: Formato para Excel 2000 o superior   Formato csv   Formato para OpenOffice Calc
Fecha Temperatura Humedad relativa Radiación global Insolación Precipitación Vel. viento 10 m Vel. viento 10 m Dir. viento 10 m
ºC % W/m² s l/m² m/s km/h º
15/02/2020 0:00 6.3 91 0.0 0 0.0 0.1 0.4 338
15/02/2020 0:10 6.1 90 0.0 0 0.0 0.2 0.6 348
15/02/2020 0:20 5.5 92 0.0 0 0.0 0.2 0.8 135
15/02/2020 0:30 5.1 94 0.0 0 0.0 0.1 0.3 54
15/02/2020 0:40 4.8 95 0.0 0 0.0 0.7 2.5 326
15/02/2020 0:50 4.4 96 0.0 0 0.0 0.6 2.1 323
15/02/2020 1:00 4.5 97 0.0 0 0.0 0.2 0.9 291
15/02/2020 1:10 4.5 97 0.0 0 0.0 1.2 4.2 330
15/02/2020 1:20 4.5 97 0.0 0 0.0 1.5 5.5 327
15/02/2020 1:30 4.3 97 0.0 0 0.0 1.5 5.3 314
15/02/2020 1:40 4.3 97 0.0 0 0.0 1.2 4.1 319
15/02/2020 1:50 4.1 97 0.0 0 0.0 1.8 6.4 325
15/02/2020 2:00 4.3 97 0.0 0 0.0 1.8 6.6 331
15/02/2020 2:10 4.2 97 0.0 0 0.0 1.1 4.0 321
15/02/2020 2:20 3.9 97 0.0 0 0.0 1.0 3.5 329
15/02/2020 2:30 3.7 97 0.0 0 0.0 0.8 2.8 332
15/02/2020 2:40 3.5 97 0.0 0 0.0 1.3 4.6 329
15/02/2020 2:50 3.7 97 0.0 0 0.0 2.0 7.3 334
15/02/2020 3:00 3.7 97 0.0 0 0.0 2.3 8.1 327
15/02/2020 3:10 3.7 97 0.0 0 0.0 2.1 7.5 328
15/02/2020 3:20 3.5 97 0.0 0 0.0 1.8 6.3 323
15/02/2020 3:30 3.5 97 0.0 0 0.0 2.1 7.4 328
15/02/2020 3:40 3.7 97 0.0 0 0.0 1.8 6.5 336
15/02/2020 3:50 3.8 97 0.0 0 0.0 1.5 5.3 329
15/02/2020 4:00 3.9 97 0.0 0 0.0 1.9 6.7 329
15/02/2020 4:10 3.9 97 0.0 0 0.0 1.9 6.7 337
15/02/2020 4:20 3.9 97 0.0 0 0.0 1.9 6.9 330
15/02/2020 4:30 3.8 97 0.0 0 0.0 2.1 7.6 325
15/02/2020 4:40 3.5 97 0.0 0 0.0 2.6 9.4 325
15/02/2020 4:50 3.0 97 0.0 0 0.0 1.4 4.9 319
15/02/2020 5:00 2.9 97 0.0 0 0.0 1.6 5.8 320
15/02/2020 5:10 2.9 97 0.0 0 0.0 1.9 6.7 322
15/02/2020 5:20 2.9 97 0.0 0 0.0 2.1 7.4 318
15/02/2020 5:30 2.8 97 0.0 0 0.0 1.6 5.8 310
15/02/2020 5:40 2.7 97 0.0 0 0.0 1.9 6.9 323
15/02/2020 5:50 2.6 97 0.0 0 0.0 1.8 6.6 326
15/02/2020 6:00 2.4 97 0.0 0 0.0 1.1 4.0 342
15/02/2020 6:10 2.1 97 0.0 0 0.0 0.8 3.0 313
15/02/2020 6:20 1.8 97 0.0 0 0.0 1.1 3.9 10
15/02/2020 6:30 2.0 97 0.0 0 0.0 1.3 4.7 338
15/02/2020 6:40 1.9 97 0.0 0 0.0 1.3 4.8 332
15/02/2020 6:50 1.8 97 0.0 0 0.0 0.9 3.3 335
15/02/2020 7:00 1.8 97 0.0 0 0.0 1.9 6.8 325
15/02/2020 7:10 2.0 97 0.0 0 0.0 1.2 4.2 330
15/02/2020 7:20 1.9 97 0.2 0 0.0 0.9 3.1 334
15/02/2020 7:30 2.0 97 17.4 0 0.0 2.0 7.2 341
15/02/2020 7:40 2.2 97 25.1 0 0.0 1.5 5.4 333
15/02/2020 7:50 2.4 97 31.8 0 0.0 0.8 3.0 320
15/02/2020 8:00 2.3 97 35.7 0 0.0 0.4 1.5 179
15/02/2020 8:10 2.5 97 91.1 412 0.0 0.6 2.0 337
15/02/2020 8:20 3.2 97 136.2 600 0.0 0.3 1.0 194
15/02/2020 8:30 3.9 97 164.8 600 0.0 0.0 0.1 122
15/02/2020 8:40 4.7 95 187.7 600 0.0 0.4 1.5 278
15/02/2020 8:50 4.9 92 215.0 600 0.0 0.4 1.4 322
15/02/2020 9:00 5.7 88 255.3 600 0.0 2.2 7.8 323
15/02/2020 9:10 5.7 89 299.1 600 0.0 1.2 4.2 311
15/02/2020 9:20 6.3 85 322.5 600 0.0 1.7 6.0 328
15/02/2020 9:30 6.8 84 344.1 600 0.0 1.7 6.3 324
15/02/2020 9:40 7.3 82 361.6 600 0.0 0.5 1.8 252
15/02/2020 9:50 7.9 79 387.5 600 0.0 0.8 3.0 216
15/02/2020 10:00 8.5 78 417.8 600 0.0 0.9 3.4 256
15/02/2020 10:10 8.9 77 446.4 600 0.0 0.7 2.7 224
15/02/2020 10:20 9.5 74 465.4 600 0.0 0.7 2.7 264
15/02/2020 10:30 10.0 73 483.8 600 0.0 1.0 3.6 246
15/02/2020 10:40 10.4 71 502.9 600 0.0 1.3 4.6 270
15/02/2020 10:50 10.7 71 522.3 600 0.0 1.5 5.5 204
15/02/2020 11:00 11.2 71 539.6 600 0.0 1.0 3.7 174
15/02/2020 11:10 11.5 69 554.4 600 0.0 1.7 6.1 194
15/02/2020 11:20 11.7 68 566.3 600 0.0 1.4 5.2 189
15/02/2020 11:30 12.2 66 573.0 600 0.0 1.2 4.3 151
15/02/2020 11:40 12.5 65 584.5 600 0.0 1.5 5.3 189
15/02/2020 11:50 12.3 67 591.1 600 0.0 1.3 4.6 160
15/02/2020 12:00 12.6 66 597.9 600 0.0 1.5 5.4 158
15/02/2020 12:10 13.0 66 605.2 600 0.0 1.5 5.4 183
15/02/2020 12:20 13.2 64 614.9 600 0.0 1.5 5.3 203
15/02/2020 12:30 13.6 63 600.0 600 0.0 1.4 5.0 158
15/02/2020 12:40 13.5 63 616.4 600 0.0 1.5 5.3 174
15/02/2020 12:50 13.7 62 512.1 600 0.0 1.7 6.2 194
15/02/2020 13:00 13.6 62 553.6 600 0.0 1.6 5.8 172
15/02/2020 13:10 13.5 63 517.0 600 0.0 1.5 5.5 182
15/02/2020 13:20 13.7 62 544.6 600 0.0 1.3 4.7 165
15/02/2020 13:30 13.2 64 431.8 600 0.0 1.4 4.9 183
15/02/2020 13:40 13.3 64 486.0 600 0.0 2.1 7.6 199
15/02/2020 13:50 13.2 65 311.7 368 0.0 1.5 5.4 186
15/02/2020 14:00 13.1 66 300.2 422 0.0 1.1 4.1 192
15/02/2020 14:10 13.0 66 320.6 600 0.0 1.0 3.7 165
15/02/2020 14:20 13.6 65 412.6 600 0.0 1.3 4.6 184
15/02/2020 14:30 13.6 65 402.2 600 0.0 1.3 4.5 206
15/02/2020 14:40 14.4 62 519.5 600 0.0 1.2 4.5 184
15/02/2020 14:50 14.3 62 376.5 600 0.0 1.4 5.1 196
15/02/2020 15:00 14.0 63 288.1 600 0.0 1.0 3.5 186
15/02/2020 15:10 13.7 64 188.5 86 0.0 0.7 2.6 134
15/02/2020 15:20 13.6 65 151.6 0 0.0 0.7 2.6 191
15/02/2020 15:30 13.4 66 127.8 0 0.0 0.5 1.8 140
15/02/2020 15:40 13.2 67 108.3 0 0.0 0.7 2.4 127
15/02/2020 15:50 13.1 67 84.5 0 0.0 0.8 3.0 112
15/02/2020 16:00 13.0 68 83.1 0 0.0 0.6 2.0 108
15/02/2020 16:10 12.9 68 75.2 0 0.0 0.6 2.3 60
15/02/2020 16:20 12.7 69 49.7 0 0.0 0.6 2.0 87
15/02/2020 16:30 12.6 70 40.2 0 0.0 0.5 1.8 66
15/02/2020 16:40 12.4 71 34.8 0 0.0 0.9 3.1 6
15/02/2020 16:50 12.2 72 33.1 0 0.0 1.0 3.6 22
15/02/2020 17:00 12.0 73 34.6 0 0.0 0.9 3.2 62
15/02/2020 17:10 11.6 75 31.0 0 0.0 1.0 3.7 70
15/02/2020 17:20 11.5 75 22.1 0 0.0 0.8 2.8 83
15/02/2020 17:30 11.2 76 11.4 0 0.0 0.5 1.7 50
15/02/2020 17:40 11.1 77 0.0 0 0.0 0.4 1.5 320
15/02/2020 17:50 11.1 76 0.0 0 0.0 0.7 2.5 16
15/02/2020 18:00 10.8 74 0.0 0 0.0 0.4 1.3 3
15/02/2020 18:10 10.1 79 0.0 0 0.0 0.6 2.0 48
15/02/2020 18:20 10.0 80 0.0 0 0.0 0.6 2.1 334
15/02/2020 18:30 9.8 80 0.0 0 0.0 0.4 1.3 351
15/02/2020 18:40 9.1 83 0.0 0 0.0 0.1 0.2 326
15/02/2020 18:50 9.5 82 0.0 0 0.0 0.7 2.6 70
15/02/2020 19:00 9.3 83 0.0 0 0.0 0.1 0.2 53
15/02/2020 19:10 9.2 84 0.0 0 0.0 0.3 1.2 48
15/02/2020 19:20 9.3 83 0.0 0 0.0 0.3 1.1 1
15/02/2020 19:30 9.0 87 0.0 0 0.0 0.4 1.5 355
15/02/2020 19:40 8.6 87 0.0 0 0.0 0.0 0.0 0
15/02/2020 19:50 8.2 91 0.0 0 0.0 0.2 0.6 350
15/02/2020 20:00 9.1 86 0.0 0 0.0 0.4 1.5 12
15/02/2020 20:10 8.2 88 0.0 0 0.0 0.7 2.6 334
15/02/2020 20:20 7.9 92 0.0 0 0.0 0.6 2.0 328
15/02/2020 20:30 7.9 94 0.0 0 0.0 0.3 1.2 322
15/02/2020 20:40 7.6 94 0.0 0 0.0 1.3 4.6 318
15/02/2020 20:50 7.4 96 0.0 0 0.0 1.3 4.6 322
15/02/2020 21:00 7.2 96 0.0 0 0.0 0.6 2.2 327
15/02/2020 21:10 6.8 96 0.0 0 0.0 0.4 1.5 302
15/02/2020 21:20 6.5 97 0.0 0 0.0 0.7 2.6 341
15/02/2020 21:30 6.8 97 0.0 0 0.0 1.0 3.7 343
15/02/2020 21:40 6.9 97 0.0 0 0.0 1.6 5.9 330
15/02/2020 21:50 7.0 97 0.0 0 0.0 1.9 6.7 331
15/02/2020 22:00 6.9 97 0.0 0 0.0 1.0 3.6 321
15/02/2020 22:10 6.7 97 0.0 0 0.0 0.6 2.3 312
15/02/2020 22:20 6.4 97 0.0 0 0.0 2.0 7.1 334
15/02/2020 22:30 6.3 97 0.0 0 0.0 0.7 2.6 328
15/02/2020 22:40 5.7 97 0.0 0 0.0 0.1 0.3 318
15/02/2020 22:50 5.6 97 0.0 0 0.0 0.3 0.9 40
15/02/2020 23:00 5.7 97 0.0 0 0.0 0.0 0.0 39
15/02/2020 23:10 5.7 97 0.0 0 0.0 0.1 0.4 29
15/02/2020 23:20 5.4 97 0.0 0 0.0 0.0 0.0 0
15/02/2020 23:30 5.0 97 0.0 0 0.0 0.0 0.0 0
15/02/2020 23:40 4.8 97 0.0 0 0.0 0.0 0.0 72
15/02/2020 23:50 4.9 97 0.0 0 0.0 0.1 0.4 52
Anterior Página 1 de 1 Siguiente

NOTA: Tipo de datos según el color:
   - Valores diarios o 10 minutos correctos
   - Valores diarios calculados a partir de un número de datos 10 minutos menor que 144 y mayor que 120, o de un número de datos semihorarios menor que 48 y mayor que 40 (caso de las estaciones de INTIA y del Ministerio)
   - Valores diez minutos estimados


Contacto        Enlaces        Aviso legal